Time;durP1;ratioP1;P1;durP2;ratioP2;P2;SDS_P1;SDS_P2;PMS_P1;PMS_P2;Temp;Humidity;BMP_temperature;BMP_pressure;BME280_temperature;BME280_humidity;BME280_pressure;Samples;Min_cycle;Max_cycle;Signal;HPM_P1;HPM_P2
2023/03/21 00:01:57;;;;;;;22.98;13.27;;;;;;;;;;5001827;28;20415;-79
2023/03/21 00:04:30;;;;;;;20.50;13.00;;;;;;;;;;5002029;28;20425;-80
2023/03/21 00:06:58;;;;;;;21.27;13.40;;;;;;;;;;5001735;28;20913;-80
2023/03/21 00:09:32;;;;;;;22.40;12.77;;;;;;;;;;5003244;28;20434;-80
2023/03/21 00:12:01;;;;;;;21.67;13.30;;;;;;;;;;5001757;28;20547;-79
2023/03/21 00:14:29;;;;;;;22.85;13.65;;;;;;;;;;4998282;28;20414;-80
2023/03/21 00:16:57;;;;;;;22.45;13.23;;;;;;;;;;5001323;28;20408;-80
2023/03/21 00:19:30;;;;;;;23.63;13.00;;;;;;;;;;5000547;28;20453;-79
2023/03/21 00:22:00;;;;;;;22.48;13.55;;;;;;;;;;5002962;28;20417;-80
2023/03/21 00:24:28;;;;;;;22.85;13.48;;;;;;;;;;5000986;28;20409;-79
2023/03/21 00:26:57;;;;;;;23.65;13.77;;;;;;;;;;5007002;28;20443;-79
2023/03/21 00:29:30;;;;;;;22.67;13.20;;;;;;;;;;5000420;28;20908;-80
2023/03/21 00:31:58;;;;;;;22.45;13.52;;;;;;;;;;4999690;28;20928;-80
2023/03/21 00:34:32;;;;;;;20.90;13.95;;;;;;;;;;5001690;28;20430;-80
2023/03/21 00:37:00;;;;;;;22.70;13.70;;;;;;;;;;5000548;28;20418;-80
2023/03/21 00:39:33;;;;;;;21.73;13.35;;;;;;;;;;4998182;28;20418;-80
2023/03/21 00:42:07;;;;;;;25.40;14.48;;;;;;;;;;5008340;28;20429;-80
2023/03/21 00:44:40;;;;;;;25.85;14.50;;;;;;;;;;4998431;28;20431;-79
2023/03/21 00:47:13;;;;;;;22.23;13.88;;;;;;;;;;5018344;28;20420;-79
2023/03/21 00:49:41;;;;;;;28.42;14.57;;;;;;;;;;5016037;28;20420;-79
2023/03/21 00:52:14;;;;;;;26.60;14.52;;;;;;;;;;4999379;28;20566;-79
2023/03/21 00:54:46;;;;;;;26.30;15.18;;;;;;;;;;4998340;28;20786;-80
2023/03/21 00:57:20;;;;;;;24.02;14.45;;;;;;;;;;5000219;28;20424;-79
2023/03/21 00:59:53;;;;;;;27.05;15.65;;;;;;;;;;5017433;28;20916;-80
2023/03/21 01:02:26;;;;;;;25.95;14.23;;;;;;;;;;5016123;28;20426;-80
2023/03/21 01:04:56;;;;;;;28.17;14.75;;;;;;;;;;4996809;28;20785;-79
2023/03/21 01:07:29;;;;;;;27.88;15.65;;;;;;;;;;5017669;28;20430;-80
2023/03/21 01:10:02;;;;;;;26.25;15.52;;;;;;;;;;5015642;28;20920;-79
2023/03/21 01:12:36;;;;;;;25.87;15.73;;;;;;;;;;5007198;28;20416;-79
2023/03/21 01:15:04;;;;;;;25.23;15.90;;;;;;;;;;4999565;28;20437;-80
2023/03/21 01:17:37;;;;;;;28.60;16.30;;;;;;;;;;5007799;28;20781;-79
2023/03/21 01:20:10;;;;;;;28.60;17.10;;;;;;;;;;5017954;28;20464;-79
2023/03/21 01:22:43;;;;;;;28.13;16.35;;;;;;;;;;5006595;28;20437;-80
2023/03/21 01:25:11;;;;;;;30.67;16.95;;;;;;;;;;5002490;28;20425;-80
2023/03/21 01:27:45;;;;;;;27.95;17.10;;;;;;;;;;5001935;28;20770;-80
2023/03/21 01:30:13;;;;;;;27.63;16.53;;;;;;;;;;5000574;28;20421;-79
2023/03/21 01:32:46;;;;;;;29.63;16.80;;;;;;;;;;5001489;28;20424;-79
2023/03/21 01:35:19;;;;;;;29.70;16.95;;;;;;;;;;4998535;28;20434;-79
2023/03/21 01:37:47;;;;;;;25.88;16.13;;;;;;;;;;5010342;28;20408;-80
2023/03/21 01:40:16;;;;;;;25.50;16.05;;;;;;;;;;5002507;28;20919;-79
2023/03/21 01:42:52;;;;;;;29.08;17.58;;;;;;;;;;5017121;28;20898;-79
2023/03/21 01:45:40;;;;;;;28.75;17.35;;;;;;;;;;5009818;28;20775;-79
2023/03/21 01:48:14;;;;;;;31.92;17.83;;;;;;;;;;5017946;28;20436;-80
2023/03/21 01:50:49;;;;;;;31.88;18.15;;;;;;;;;;5007899;28;20432;-79
2023/03/21 01:53:34;;;;;;;30.63;18.13;;;;;;;;;;5018830;28;20418;-79
2023/03/21 01:56:11;;;;;;;31.10;17.73;;;;;;;;;;5018042;28;20416;-79
2023/03/21 01:58:55;;;;;;;31.33;18.88;;;;;;;;;;5008890;28;20416;-80
2023/03/21 02:01:43;;;;;;;32.25;18.63;;;;;;;;;;5015783;28;20419;-80
2023/03/21 02:04:11;;;;;;;33.95;19.00;;;;;;;;;;5018645;28;20429;-80
2023/03/21 02:07:12;;;;;;;36.67;20.30;;;;;;;;;;5005340;28;20445;-80
2023/03/21 02:09:53;;;;;;;32.88;18.70;;;;;;;;;;5018242;28;20434;-80
2023/03/21 02:12:23;;;;;;;33.80;19.77;;;;;;;;;;5002857;28;20435;-79
2023/03/21 02:14:58;;;;;;;34.23;19.70;;;;;;;;;;5019385;28;20498;-80
2023/03/21 02:17:48;;;;;;;33.60;19.50;;;;;;;;;;5009285;28;20502;-80
2023/03/21 02:20:45;;;;;;;37.03;20.45;;;;;;;;;;5008439;28;20424;-80
2023/03/21 02:23:41;;;;;;;36.47;20.33;;;;;;;;;;5017896;28;20421;-79
2023/03/21 02:26:41;;;;;;;36.67;19.95;;;;;;;;;;5017253;28;20458;-80
2023/03/21 02:29:26;;;;;;;35.67;19.35;;;;;;;;;;5003428;28;20428;-79
2023/03/21 02:32:04;;;;;;;38.55;19.92;;;;;;;;;;5015445;28;20789;-79
2023/03/21 02:34:50;;;;;;;36.28;20.23;;;;;;;;;;5009517;28;20445;-80
2023/03/21 02:37:28;;;;;;;37.47;20.25;;;;;;;;;;5008440;28;20418;-79
2023/03/21 02:40:09;;;;;;;38.65;20.55;;;;;;;;;;5008406;28;20443;-80
2023/03/21 02:42:53;;;;;;;38.53;20.35;;;;;;;;;;5004018;28;20433;-80
2023/03/21 02:45:28;;;;;;;36.78;20.20;;;;;;;;;;4999727;28;20434;-79
2023/03/21 02:48:03;;;;;;;34.17;19.30;;;;;;;;;;5017836;28;20430;-79
2023/03/21 02:50:38;;;;;;;36.92;20.55;;;;;;;;;;5001854;28;20428;-80
2023/03/21 02:53:14;;;;;;;37.08;20.50;;;;;;;;;;5009078;28;20432;-80
2023/03/21 02:55:43;;;;;;;38.97;21.77;;;;;;;;;;5019294;28;20869;-79
2023/03/21 02:58:18;;;;;;;35.33;19.88;;;;;;;;;;5015228;28;20793;-79
2023/03/21 03:00:55;;;;;;;34.65;20.05;;;;;;;;;;5009730;28;20421;-80
2023/03/21 03:03:37;;;;;;;36.22;19.80;;;;;;;;;;5017898;28;20451;-80
2023/03/21 03:06:15;;;;;;;35.38;19.65;;;;;;;;;;5008049;28;20459;-80
2023/03/21 03:09:00;;;;;;;38.00;20.42;;;;;;;;;;5020097;28;20406;-80
2023/03/21 03:11:34;;;;;;;39.95;20.55;;;;;;;;;;5018907;28;20425;-80
2023/03/21 03:14:12;;;;;;;37.55;19.98;;;;;;;;;;5018788;28;20422;-79
2023/03/21 03:16:45;;;;;;;35.72;20.00;;;;;;;;;;5001879;28;20428;-80
2023/03/21 03:19:18;;;;;;;35.63;19.95;;;;;;;;;;5018299;28;20429;-80
2023/03/21 03:21:49;;;;;;;36.67;19.58;;;;;;;;;;4999873;28;20423;-80
2023/03/21 03:24:21;;;;;;;37.70;20.63;;;;;;;;;;5019885;28;20773;-80
2023/03/21 03:26:56;;;;;;;37.33;20.37;;;;;;;;;;5017968;28;20442;-80
2023/03/21 03:29:31;;;;;;;37.67;20.88;;;;;;;;;;5000254;28;20414;-80
2023/03/21 03:32:00;;;;;;;35.57;19.67;;;;;;;;;;5009365;28;20421;-80
2023/03/21 03:34:33;;;;;;;34.88;19.75;;;;;;;;;;5015453;28;20465;-79
2023/03/21 03:37:08;;;;;;;35.78;20.15;;;;;;;;;;5016199;28;20430;-80
2023/03/21 03:39:45;;;;;;;40.15;20.95;;;;;;;;;;5002640;28;20782;-80
2023/03/21 03:42:20;;;;;;;39.30;20.70;;;;;;;;;;5001158;28;20762;-79
2023/03/21 03:44:52;;;;;;;40.08;21.42;;;;;;;;;;5018516;28;20451;-79
2023/03/21 03:47:29;;;;;;;38.55;20.60;;;;;;;;;;5007312;28;20446;-80
2023/03/21 03:50:01;;;;;;;36.53;20.30;;;;;;;;;;4998016;28;20494;-80
2023/03/21 03:52:32;;;;;;;39.97;21.75;;;;;;;;;;5015503;28;20433;-80
2023/03/21 03:55:09;;;;;;;37.60;20.33;;;;;;;;;;4999532;28;20877;-80
2023/03/21 03:57:44;;;;;;;40.92;20.95;;;;;;;;;;5001247;28;20422;-80
2023/03/21 04:00:17;;;;;;;38.30;21.10;;;;;;;;;;5009015;28;21246;-79
2023/03/21 04:02:51;;;;;;;40.42;21.20;;;;;;;;;;5006446;28;20440;-80
2023/03/21 04:05:22;;;;;;;40.95;20.90;;;;;;;;;;5009223;28;20422;-80
2023/03/21 04:07:55;;;;;;;39.22;21.38;;;;;;;;;;5007869;28;20425;-79
2023/03/21 04:10:37;;;;;;;39.55;20.65;;;;;;;;;;5007765;28;20414;-79
2023/03/21 04:13:10;;;;;;;41.65;21.85;;;;;;;;;;4999616;28;20912;-79
2023/03/21 04:16:08;;;;;;;36.55;20.45;;;;;;;;;;5000131;28;20434;-80
2023/03/21 04:18:42;;;;;;;36.73;20.80;;;;;;;;;;5000665;28;20417;-80
2023/03/21 04:21:11;;;;;;;38.17;20.05;;;;;;;;;;5007450;28;20886;-80
2023/03/21 04:23:44;;;;;;;37.53;20.55;;;;;;;;;;5008476;28;20420;-79
2023/03/21 04:26:21;;;;;;;39.17;21.08;;;;;;;;;;5000796;28;20436;-80
2023/03/21 04:29:13;;;;;;;36.20;19.65;;;;;;;;;;5001286;28;20427;-79
2023/03/21 04:32:00;;;;;;;38.35;20.73;;;;;;;;;;5001284;28;20767;-79
2023/03/21 04:34:28;;;;;;;35.53;19.67;;;;;;;;;;5014183;28;20428;-79
2023/03/21 04:37:09;;;;;;;37.20;21.15;;;;;;;;;;5007535;28;20419;-80
2023/03/21 04:39:42;;;;;;;37.97;20.42;;;;;;;;;;5014585;28;20436;-80
2023/03/21 04:42:17;;;;;;;35.40;20.02;;;;;;;;;;4998099;28;20431;-80
2023/03/21 04:44:50;;;;;;;37.28;20.85;;;;;;;;;;5015420;28;20995;-80
2023/03/21 04:47:20;;;;;;;37.80;21.13;;;;;;;;;;5001239;28;20433;-79
2023/03/21 04:49:48;;;;;;;39.80;21.83;;;;;;;;;;5016689;28;20425;-80
2023/03/21 04:52:16;;;;;;;40.15;21.60;;;;;;;;;;5016659;28;20420;-80
2023/03/21 04:54:49;;;;;;;37.38;20.70;;;;;;;;;;5001794;28;20422;-80
2023/03/21 04:57:24;;;;;;;41.25;21.73;;;;;;;;;;5018639;28;20428;-79
2023/03/21 04:59:52;;;;;;;42.15;22.05;;;;;;;;;;5015403;28;20428;-80
2023/03/21 05:02:21;;;;;;;42.22;22.40;;;;;;;;;;5015063;28;20437;-79
2023/03/21 05:04:57;;;;;;;41.23;21.53;;;;;;;;;;5001213;28;20640;-79
2023/03/21 05:07:31;;;;;;;41.53;21.67;;;;;;;;;;4998429;28;20417;-79
2023/03/21 05:10:05;;;;;;;40.83;22.15;;;;;;;;;;4999050;28;20893;-79
2023/03/21 05:12:41;;;;;;;38.13;20.77;;;;;;;;;;5005029;28;20424;-79
2023/03/21 05:15:14;;;;;;;42.70;21.48;;;;;;;;;;5023758;28;20428;-80
2023/03/21 05:17:47;;;;;;;43.58;21.98;;;;;;;;;;5012896;28;20445;-80
2023/03/21 05:20:20;;;;;;;43.30;22.58;;;;;;;;;;5006985;28;20422;-79
2023/03/21 05:22:50;;;;;;;41.55;21.58;;;;;;;;;;5012373;28;20431;-80
2023/03/21 05:25:32;;;;;;;44.47;22.67;;;;;;;;;;5021329;28;20421;-79
2023/03/21 05:28:12;;;;;;;40.08;21.35;;;;;;;;;;5022125;28;20428;-79
2023/03/21 05:30:45;;;;;;;44.90;24.30;;;;;;;;;;5014002;28;20880;-79
2023/03/21 05:33:19;;;;;;;44.50;23.90;;;;;;;;;;5025256;28;20950;-79
2023/03/21 05:35:51;;;;;;;39.63;21.37;;;;;;;;;;5006622;28;20447;-79
2023/03/21 05:38:28;;;;;;;40.00;21.42;;;;;;;;;;5006687;28;20750;-80
2023/03/21 05:41:02;;;;;;;41.20;22.25;;;;;;;;;;5012376;28;20789;-80
2023/03/21 05:43:32;;;;;;;46.42;25.38;;;;;;;;;;5007616;28;20919;-80
2023/03/21 05:46:06;;;;;;;44.40;23.00;;;;;;;;;;5013783;28;20422;-79
2023/03/21 05:48:39;;;;;;;44.60;23.53;;;;;;;;;;5010058;28;20429;-80
2023/03/21 05:51:14;;;;;;;41.05;21.55;;;;;;;;;;5023936;28;20422;-80
2023/03/21 05:53:47;;;;;;;42.03;22.58;;;;;;;;;;5002793;28;20429;-79
2023/03/21 05:56:21;;;;;;;44.78;22.35;;;;;;;;;;5023484;28;20429;-79
2023/03/21 05:59:03;;;;;;;41.72;22.30;;;;;;;;;;5005498;28;20546;-80
2023/03/21 06:01:41;;;;;;;46.10;23.08;;;;;;;;;;5008300;28;20441;-79
2023/03/21 06:04:16;;;;;;;46.97;23.15;;;;;;;;;;5004504;28;20787;-79
2023/03/21 06:06:49;;;;;;;42.35;22.55;;;;;;;;;;5006815;28;20426;-80
2023/03/21 06:09:23;;;;;;;42.25;22.33;;;;;;;;;;5007538;28;20428;-80
2023/03/21 06:12:00;;;;;;;44.43;22.53;;;;;;;;;;5020928;28;20439;-80
2023/03/21 06:14:41;;;;;;;45.00;23.27;;;;;;;;;;5008401;28;20427;-80
2023/03/21 06:17:30;;;;;;;43.65;23.23;;;;;;;;;;5022841;28;20913;-80
2023/03/21 06:20:08;;;;;;;41.88;22.63;;;;;;;;;;5013100;28;20405;-79
2023/03/21 06:22:40;;;;;;;42.38;22.08;;;;;;;;;;5022407;28;20426;-80
2023/03/21 06:25:13;;;;;;;44.85;23.38;;;;;;;;;;5018508;28;20421;-80
2023/03/21 06:27:46;;;;;;;41.72;22.30;;;;;;;;;;5010369;28;20444;-80
2023/03/21 06:30:21;;;;;;;42.37;23.00;;;;;;;;;;5009303;28;20434;-80
2023/03/21 06:33:04;;;;;;;44.00;23.88;;;;;;;;;;5019881;28;20881;-80
2023/03/21 06:35:32;;;;;;;42.92;22.73;;;;;;;;;;5018055;28;20413;-80
2023/03/21 06:38:00;;;;;;;44.65;23.25;;;;;;;;;;5017333;28;20793;-80
2023/03/21 06:40:33;;;;;;;44.67;23.52;;;;;;;;;;5019477;28;20420;-79
2023/03/21 06:43:06;;;;;;;44.88;23.52;;;;;;;;;;5020159;28;20922;-79
2023/03/21 06:45:40;;;;;;;47.30;23.80;;;;;;;;;;5019043;28;20434;-80
2023/03/21 06:48:10;;;;;;;52.28;23.83;;;;;;;;;;5015458;28;20422;-80
2023/03/21 06:50:50;;;;;;;47.13;23.73;;;;;;;;;;4999496;28;20521;-80
2023/03/21 06:53:23;;;;;;;48.00;24.73;;;;;;;;;;5004808;28;20433;-80
2023/03/21 06:56:15;;;;;;;47.60;24.50;;;;;;;;;;5019157;28;20421;-80
2023/03/21 06:58:49;;;;;;;49.45;24.73;;;;;;;;;;5007409;28;20415;-80
2023/03/21 07:01:51;;;;;;;50.25;25.35;;;;;;;;;;5017715;28;20442;-80
2023/03/21 07:04:25;;;;;;;46.42;24.83;;;;;;;;;;5003260;28;20773;-80
2023/03/21 07:06:58;;;;;;;50.10;24.80;;;;;;;;;;5001076;28;20432;-79
2023/03/21 07:09:31;;;;;;;48.55;25.30;;;;;;;;;;5020107;28;21214;-80
2023/03/21 07:12:06;;;;;;;49.78;25.42;;;;;;;;;;5002603;28;20413;-80
2023/03/21 07:15:00;;;;;;;43.78;24.45;;;;;;;;;;5017635;28;20944;-80
2023/03/21 07:17:34;;;;;;;46.50;23.77;;;;;;;;;;5015919;28;20423;-79
2023/03/21 07:20:07;;;;;;;50.60;25.08;;;;;;;;;;5007994;28;20422;-81
2023/03/21 07:22:40;;;;;;;47.92;24.48;;;;;;;;;;5019695;28;20437;-80
2023/03/21 07:25:09;;;;;;;48.03;24.87;;;;;;;;;;5002889;28;20507;-79
2023/03/21 07:27:42;;;;;;;46.88;24.38;;;;;;;;;;5017098;28;20422;-79
2023/03/21 07:30:15;;;;;;;48.50;24.95;;;;;;;;;;5003599;28;20458;-79
2023/03/21 07:32:49;;;;;;;45.33;23.33;;;;;;;;;;5006694;28;20445;-80
2023/03/21 07:35:17;;;;;;;45.28;23.67;;;;;;;;;;5005097;28;20438;-80
2023/03/21 07:37:50;;;;;;;46.10;23.77;;;;;;;;;;5000164;28;20473;-80
2023/03/21 07:40:23;;;;;;;44.90;24.03;;;;;;;;;;4999940;28;20427;-79
2023/03/21 07:42:56;;;;;;;44.88;24.27;;;;;;;;;;4999848;28;20444;-79
2023/03/21 07:45:33;;;;;;;43.53;23.55;;;;;;;;;;5015217;28;20500;-79
2023/03/21 07:48:02;;;;;;;49.80;24.83;;;;;;;;;;5001148;28;20430;-78
2023/03/21 07:50:34;;;;;;;45.40;24.58;;;;;;;;;;5005938;28;20441;-80
2023/03/21 07:53:01;;;;;;;45.90;23.83;;;;;;;;;;4972749;28;20438;-80
2023/03/21 07:55:35;;;;;;;41.53;23.33;;;;;;;;;;4976566;28;20813;-80
2023/03/21 07:58:03;;;;;;;42.75;23.65;;;;;;;;;;4976527;28;20434;-80
2023/03/21 08:00:35;;;;;;;40.10;23.17;;;;;;;;;;4995957;28;20436;-80
2023/03/21 08:03:10;;;;;;;40.17;22.93;;;;;;;;;;5002255;28;20426;-79
2023/03/21 08:05:44;;;;;;;41.85;23.65;;;;;;;;;;5011838;28;20436;-79
2023/03/21 08:08:17;;;;;;;39.33;22.50;;;;;;;;;;4996661;28;20431;-79
2023/03/21 08:10:49;;;;;;;39.97;22.70;;;;;;;;;;5007484;28;20442;-81
2023/03/21 08:13:23;;;;;;;44.08;23.25;;;;;;;;;;4979882;28;20420;-80
2023/03/21 08:15:51;;;;;;;41.92;23.98;;;;;;;;;;5003385;28;20974;-81
2023/03/21 08:18:25;;;;;;;42.80;23.70;;;;;;;;;;4999226;28;20422;-81
2023/03/21 08:20:54;;;;;;;41.67;23.80;;;;;;;;;;4999684;28;20473;-81
2023/03/21 08:23:27;;;;;;;43.80;24.15;;;;;;;;;;4996794;28;20851;-80
2023/03/21 08:26:00;;;;;;;43.30;23.73;;;;;;;;;;5007834;28;20446;-81
2023/03/21 08:28:33;;;;;;;42.38;23.73;;;;;;;;;;4991686;28;21629;-80
2023/03/21 08:31:07;;;;;;;44.42;24.52;;;;;;;;;;4994458;28;20443;-80
2023/03/21 08:33:36;;;;;;;44.83;24.85;;;;;;;;;;4984753;28;20445;-81
2023/03/21 08:36:09;;;;;;;47.55;25.05;;;;;;;;;;4987644;28;20473;-80
2023/03/21 08:38:44;;;;;;;46.30;24.80;;;;;;;;;;4993612;28;20904;-80
2023/03/21 08:41:19;;;;;;;46.45;24.38;;;;;;;;;;4996232;28;21855;-80
2023/03/21 08:43:52;;;;;;;43.53;24.67;;;;;;;;;;4995365;28;20463;-80
2023/03/21 08:46:25;;;;;;;45.50;24.60;;;;;;;;;;4988501;28;20438;-81
2023/03/21 08:48:59;;;;;;;44.42;25.52;;;;;;;;;;4991074;28;20427;-80
2023/03/21 08:51:27;;;;;;;46.25;24.77;;;;;;;;;;4994583;28;20439;-81
2023/03/21 08:54:00;;;;;;;45.15;24.92;;;;;;;;;;4990044;28;20411;-82
2023/03/21 08:56:33;;;;;;;45.22;25.33;;;;;;;;;;4991553;28;20893;-81
2023/03/21 08:59:02;;;;;;;42.50;24.65;;;;;;;;;;4992453;28;20411;-81
2023/03/21 09:01:35;;;;;;;43.50;24.85;;;;;;;;;;4994894;28;20435;-81
2023/03/21 09:04:10;;;;;;;53.28;29.73;;;;;;;;;;4985985;28;20440;-81
2023/03/21 09:06:44;;;;;;;50.53;27.35;;;;;;;;;;4990531;28;20436;-81
2023/03/21 09:09:17;;;;;;;47.05;25.73;;;;;;;;;;4994107;28;20438;-81
2023/03/21 09:11:50;;;;;;;43.70;24.70;;;;;;;;;;4995839;28;20427;-81
2023/03/21 09:14:18;;;;;;;41.47;23.88;;;;;;;;;;5003257;28;20427;-80
2023/03/21 09:16:51;;;;;;;42.92;23.67;;;;;;;;;;4998281;28;20447;-81
2023/03/21 09:19:26;;;;;;;39.25;23.40;;;;;;;;;;4988270;28;20423;-81
2023/03/21 09:22:00;;;;;;;41.08;24.23;;;;;;;;;;4987886;28;20434;-81
2023/03/21 09:24:33;;;;;;;44.65;24.35;;;;;;;;;;5010998;28;20438;-81
2023/03/21 09:27:05;;;;;;;40.70;23.92;;;;;;;;;;4993896;28;20433;-81
2023/03/21 09:29:38;;;;;;;42.03;23.55;;;;;;;;;;4993382;28;20430;-81
2023/03/21 09:32:07;;;;;;;42.47;23.83;;;;;;;;;;4990720;28;20430;-81
2023/03/21 09:34:41;;;;;;;48.17;26.80;;;;;;;;;;4995969;28;20438;-81
2023/03/21 09:37:14;;;;;;;54.13;30.55;;;;;;;;;;4991703;28;20443;-81
2023/03/21 09:39:50;;;;;;;43.90;24.90;;;;;;;;;;5002974;28;20438;-81
2023/03/21 09:42:29;;;;;;;37.50;21.80;;;;;;;;;;4992374;28;20434;-80
2023/03/21 09:45:05;;;;;;;36.65;20.73;;;;;;;;;;4997796;28;20433;-80
2023/03/21 09:47:48;;;;;;;36.38;21.33;;;;;;;;;;4991503;28;20432;-80
2023/03/21 09:50:26;;;;;;;36.58;21.73;;;;;;;;;;4993343;28;20853;-80
2023/03/21 09:53:00;;;;;;;39.38;21.38;;;;;;;;;;5003066;28;20427;-81
2023/03/21 09:55:35;;;;;;;35.60;20.77;;;;;;;;;;4998383;28;22247;-81
2023/03/21 09:58:15;;;;;;;38.67;21.53;;;;;;;;;;4992778;28;20438;-81
2023/03/21 10:00:46;;;;;;;39.20;21.80;;;;;;;;;;5001781;28;21861;-81
2023/03/21 10:03:23;;;;;;;37.15;21.60;;;;;;;;;;4978294;28;20423;-81
2023/03/21 10:06:00;;;;;;;36.20;20.92;;;;;;;;;;5005883;28;20431;-82
2023/03/21 10:08:35;;;;;;;32.17;18.50;;;;;;;;;;5015420;28;20435;-81
2023/03/21 10:11:12;;;;;;;32.40;19.00;;;;;;;;;;5003055;28;21105;-82
2023/03/21 10:13:49;;;;;;;30.30;18.35;;;;;;;;;;5005733;28;20446;-81
2023/03/21 10:16:20;;;;;;;29.27;17.63;;;;;;;;;;5002176;28;20799;-81
2023/03/21 10:18:48;;;;;;;28.55;18.08;;;;;;;;;;5004109;28;20457;-82
2023/03/21 10:21:23;;;;;;;30.23;17.00;;;;;;;;;;5008557;28;20423;-81
2023/03/21 10:23:57;;;;;;;27.80;17.00;;;;;;;;;;5007832;28;20478;-82
2023/03/21 10:26:30;;;;;;;28.48;17.30;;;;;;;;;;5005629;28;21481;-82
2023/03/21 10:29:03;;;;;;;26.58;16.35;;;;;;;;;;5019213;28;20431;-81
2023/03/21 10:31:31;;;;;;;25.08;16.13;;;;;;;;;;5003182;28;20443;-83
2023/03/21 10:34:07;;;;;;;27.55;16.92;;;;;;;;;;5007568;28;20518;-82
2023/03/21 10:36:41;;;;;;;28.20;17.17;;;;;;;;;;5002515;28;20422;-81
2023/03/21 10:39:19;;;;;;;27.52;16.85;;;;;;;;;;5005206;28;20431;-81
2023/03/21 10:41:52;;;;;;;27.92;17.20;;;;;;;;;;5009665;28;20430;-81
2023/03/21 10:44:20;;;;;;;27.95;17.02;;;;;;;;;;5011947;28;20431;-82
2023/03/21 10:46:52;;;;;;;28.27;16.70;;;;;;;;;;5007504;28;20430;-81
2023/03/21 10:49:25;;;;;;;28.17;16.93;;;;;;;;;;5003256;28;20435;-82
2023/03/21 10:51:56;;;;;;;29.35;17.40;;;;;;;;;;4996564;28;22229;-82
2023/03/21 10:54:30;;;;;;;28.73;17.05;;;;;;;;;;4998884;28;21656;-82
2023/03/21 10:57:00;;;;;;;32.63;17.63;;;;;;;;;;5000876;28;20414;-81
2023/03/21 10:59:36;;;;;;;28.80;16.95;;;;;;;;;;5000068;28;20435;-82
2023/03/21 11:02:16;;;;;;;27.08;16.67;;;;;;;;;;5024544;28;20427;-81
2023/03/21 11:04:45;;;;;;;30.00;16.98;;;;;;;;;;4975195;28;20443;-81
2023/03/21 11:07:15;;;;;;;30.45;17.15;;;;;;;;;;5009646;28;20419;-81
2023/03/21 11:09:48;;;;;;;30.10;16.98;;;;;;;;;;5001867;28;21842;-82
2023/03/21 11:12:17;;;;;;;30.40;16.88;;;;;;;;;;5000171;28;20434;-81
2023/03/21 11:14:45;;;;;;;32.20;17.50;;;;;;;;;;5018551;28;21056;-83
2023/03/21 11:17:23;;;;;;;29.15;17.65;;;;;;;;;;4996367;28;20446;-82
2023/03/21 11:19:52;;;;;;;31.65;17.77;;;;;;;;;;4998622;28;20447;-81
2023/03/21 11:22:22;;;;;;;31.25;17.80;;;;;;;;;;5002951;28;20430;-81
2023/03/21 11:24:58;;;;;;;33.45;18.05;;;;;;;;;;5005383;28;20431;-81
2023/03/21 11:27:31;;;;;;;34.22;18.58;;;;;;;;;;5003000;28;20435;-81
2023/03/21 11:30:01;;;;;;;31.58;17.65;;;;;;;;;;4999349;28;20435;-81
2023/03/21 11:32:36;;;;;;;31.20;17.13;;;;;;;;;;4999176;28;20878;-81
2023/03/21 11:35:13;;;;;;;30.58;17.30;;;;;;;;;;5003608;28;20427;-81
2023/03/21 11:37:52;;;;;;;30.10;17.15;;;;;;;;;;4999546;28;20438;-81
2023/03/21 11:40:26;;;;;;;34.28;17.38;;;;;;;;;;5000568;28;20688;-81
2023/03/21 11:43:00;;;;;;;34.22;17.20;;;;;;;;;;5000820;28;20424;-82
2023/03/21 11:45:29;;;;;;;29.80;17.48;;;;;;;;;;5006645;28;20426;-81
2023/03/21 11:47:58;;;;;;;32.88;17.00;;;;;;;;;;5004626;28;20435;-81
2023/03/21 11:50:32;;;;;;;30.30;17.00;;;;;;;;;;4993373;28;20438;-82
2023/03/21 11:53:15;;;;;;;32.63;16.98;;;;;;;;;;4996759;28;20969;-81
2023/03/21 11:55:54;;;;;;;34.25;17.30;;;;;;;;;;5001233;28;20447;-81
2023/03/21 11:58:33;;;;;;;29.27;16.15;;;;;;;;;;5000842;28;20435;-81
2023/03/21 12:01:08;;;;;;;30.33;16.00;;;;;;;;;;5002534;28;20423;-81
2023/03/21 12:03:51;;;;;;;27.75;16.20;;;;;;;;;;4998180;28;20462;-81
2023/03/21 12:06:26;;;;;;;27.75;16.23;;;;;;;;;;5000095;28;20426;-81
2023/03/21 12:09:13;;;;;;;27.43;15.33;;;;;;;;;;4968353;28;21041;-83
2023/03/21 12:11:49;;;;;;;27.80;15.65;;;;;;;;;;4999612;28;22178;-86
2023/03/21 12:14:27;;;;;;;27.90;15.15;;;;;;;;;;5000834;28;20421;-81
2023/03/21 12:17:05;;;;;;;33.28;17.80;;;;;;;;;;5004453;28;20427;-81
2023/03/21 12:19:56;;;;;;;32.47;16.10;;;;;;;;;;5006132;28;20461;-82
2023/03/21 12:22:33;;;;;;;27.13;15.07;;;;;;;;;;4998626;28;20430;-81
2023/03/21 12:25:10;;;;;;;30.10;14.83;;;;;;;;;;5000645;28;20415;-81
2023/03/21 12:27:42;;;;;;;29.73;15.47;;;;;;;;;;5010373;28;20423;-81
2023/03/21 12:30:30;;;;;;;26.50;14.60;;;;;;;;;;5003961;28;20431;-83
2023/03/21 12:33:03;;;;;;;26.55;14.77;;;;;;;;;;5001205;28;20439;-82
2023/03/21 12:35:43;;;;;;;25.83;15.10;;;;;;;;;;5023811;28;20442;-81
2023/03/21 12:38:17;;;;;;;24.50;14.85;;;;;;;;;;4998958;28;20426;-82
2023/03/21 12:41:01;;;;;;;25.42;14.13;;;;;;;;;;5003621;28;20657;-82
2023/03/21 12:43:39;;;;;;;26.65;14.93;;;;;;;;;;5007201;28;20423;-82
2023/03/21 12:46:16;;;;;;;25.00;14.63;;;;;;;;;;5000098;28;21633;-81
2023/03/21 12:48:51;;;;;;;25.35;14.65;;;;;;;;;;5000105;28;20442;-82
2023/03/21 12:51:26;;;;;;;26.03;15.17;;;;;;;;;;4998864;28;20491;-82
2023/03/21 12:53:58;;;;;;;27.00;15.32;;;;;;;;;;4997385;28;20431;-82
2023/03/21 12:56:34;;;;;;;25.93;15.20;;;;;;;;;;5000670;28;20489;-82
2023/03/21 12:59:05;;;;;;;27.50;15.45;;;;;;;;;;5004608;28;20435;-81
2023/03/21 13:01:39;;;;;;;30.30;15.93;;;;;;;;;;5007597;28;21203;-81
2023/03/21 13:04:21;;;;;;;26.10;15.68;;;;;;;;;;5001806;28;20431;-83
2023/03/21 13:06:52;;;;;;;26.38;15.18;;;;;;;;;;4997699;28;21463;-81
2023/03/21 13:09:28;;;;;;;27.48;15.57;;;;;;;;;;5005845;28;20438;-81
2023/03/21 13:11:59;;;;;;;27.95;15.73;;;;;;;;;;5003010;28;20442;-81
2023/03/21 13:14:36;;;;;;;30.13;15.88;;;;;;;;;;4974130;28;20427;-81
2023/03/21 13:17:12;;;;;;;28.05;16.27;;;;;;;;;;4975530;28;20516;-82
2023/03/21 13:19:48;;;;;;;34.08;16.08;;;;;;;;;;4973405;28;20437;-81
2023/03/21 13:22:23;;;;;;;26.88;16.10;;;;;;;;;;4970446;28;22439;-81
2023/03/21 13:24:57;;;;;;;32.97;16.40;;;;;;;;;;4971852;28;20421;-81
2023/03/21 13:27:32;;;;;;;29.83;17.05;;;;;;;;;;4977959;28;20459;-81
2023/03/21 13:30:06;;;;;;;30.38;16.15;;;;;;;;;;4978983;28;20909;-81
2023/03/21 13:32:36;;;;;;;30.73;15.80;;;;;;;;;;4973243;28;20437;-81
2023/03/21 13:35:13;;;;;;;29.67;15.63;;;;;;;;;;4977563;28;20952;-81
2023/03/21 13:37:50;;;;;;;27.38;14.43;;;;;;;;;;4980147;28;20432;-81
2023/03/21 13:40:24;;;;;;;25.88;14.13;;;;;;;;;;4979332;28;20437;-82
2023/03/21 13:43:02;;;;;;;25.00;13.70;;;;;;;;;;4973896;28;20538;-81
2023/03/21 13:45:31;;;;;;;26.40;13.82;;;;;;;;;;4972937;28;20445;-80
2023/03/21 13:48:05;;;;;;;24.60;13.93;;;;;;;;;;4979980;28;20439;-81
2023/03/21 13:50:49;;;;;;;24.13;12.63;;;;;;;;;;4988201;28;20443;-80
2023/03/21 13:53:30;;;;;;;22.25;12.02;;;;;;;;;;5001218;28;21007;-81
2023/03/21 13:56:08;;;;;;;23.95;12.43;;;;;;;;;;4978716;28;20440;-81
2023/03/21 13:58:50;;;;;;;20.63;12.40;;;;;;;;;;4981429;28;20438;-81
2023/03/21 14:01:28;;;;;;;21.50;12.37;;;;;;;;;;4978547;28;20497;-81
2023/03/21 14:04:04;;;;;;;21.50;11.82;;;;;;;;;;4975004;28;20436;-81
2023/03/21 14:06:41;;;;;;;21.42;12.02;;;;;;;;;;4977058;28;20861;-81
2023/03/21 14:09:20;;;;;;;20.42;11.70;;;;;;;;;;4973696;28;20427;-81
2023/03/21 14:11:51;;;;;;;21.30;11.52;;;;;;;;;;4976431;28;20431;-81
2023/03/21 14:14:27;;;;;;;20.85;12.02;;;;;;;;;;4975902;28;20421;-81
2023/03/21 14:17:00;;;;;;;22.13;11.23;;;;;;;;;;4968888;28;20421;-80
2023/03/21 14:19:31;;;;;;;21.70;11.70;;;;;;;;;;4971710;28;21238;-82
2023/03/21 14:22:10;;;;;;;19.65;11.85;;;;;;;;;;4973241;28;20422;-82
2023/03/21 14:24:47;;;;;;;22.00;12.02;;;;;;;;;;4977662;28;20419;-81
2023/03/21 14:27:14;;;;;;;20.33;11.85;;;;;;;;;;4973359;28;21132;-80
2023/03/21 14:29:45;;;;;;;17.27;11.13;;;;;;;;;;4978361;28;20434;-81
2023/03/21 14:32:19;;;;;;;18.83;11.80;;;;;;;;;;4971586;28;20436;-82
2023/03/21 14:34:52;;;;;;;18.13;11.23;;;;;;;;;;4981026;28;20441;-81
2023/03/21 14:37:30;;;;;;;19.70;11.60;;;;;;;;;;4978968;28;20431;-82
2023/03/21 14:40:07;;;;;;;20.08;11.60;;;;;;;;;;4977835;28;20449;-81
2023/03/21 14:42:45;;;;;;;17.73;10.87;;;;;;;;;;4969698;28;20443;-81
2023/03/21 14:45:19;;;;;;;20.17;11.23;;;;;;;;;;4971932;28;20426;-80
2023/03/21 14:47:56;;;;;;;18.52;11.27;;;;;;;;;;4981463;28;20451;-81
2023/03/21 14:50:33;;;;;;;18.77;11.27;;;;;;;;;;4972099;28;21306;-80
2023/03/21 14:53:06;;;;;;;19.70;11.40;;;;;;;;;;4971443;28;21135;-81
2023/03/21 14:55:42;;;;;;;18.65;10.77;;;;;;;;;;4975809;28;20928;-81
2023/03/21 14:58:15;;;;;;;19.48;11.15;;;;;;;;;;4978200;28;20449;-82
2023/03/21 15:00:47;;;;;;;17.40;10.43;;;;;;;;;;4973774;28;20432;-81